sensor_id;sensor_type;location;lat;lon;timestamp;P1;durP1;ratioP1;P2;durP2;ratioP2
5878;SDS011;2965;42.640;23.370;2022-09-09T00:01:20;22.70;;;14.90;;
5878;SDS011;2965;42.640;23.370;2022-09-09T00:06:28;17.93;;;14.30;;
5878;SDS011;2965;42.640;23.370;2022-09-09T00:12:02;21.13;;;14.70;;
5878;SDS011;2965;42.640;23.370;2022-09-09T00:23:14;19.30;;;14.70;;
5878;SDS011;2965;42.640;23.370;2022-09-09T00:28:18;16.10;;;13.60;;
5878;SDS011;2965;42.640;23.370;2022-09-09T00:30:53;15.90;;;12.30;;
5878;SDS011;2965;42.640;23.370;2022-09-09T00:33:22;18.80;;;13.43;;
5878;SDS011;2965;42.640;23.370;2022-09-09T00:35:52;15.57;;;13.90;;
5878;SDS011;2965;42.640;23.370;2022-09-09T00:43:57;16.10;;;13.87;;
5878;SDS011;2965;42.640;23.370;2022-09-09T00:52:41;17.57;;;13.20;;
5878;SDS011;2965;42.640;23.370;2022-09-09T00:57:58;21.83;;;14.63;;
5878;SDS011;2965;42.640;23.370;2022-09-09T01:00:25;23.73;;;13.47;;
5878;SDS011;2965;42.640;23.370;2022-09-09T01:02:59;17.67;;;14.57;;
5878;SDS011;2965;42.640;23.370;2022-09-09T01:09:00;24.33;;;13.70;;
5878;SDS011;2965;42.640;23.370;2022-09-09T01:17:19;16.80;;;13.83;;
5878;SDS011;2965;42.640;23.370;2022-09-09T01:22:33;19.13;;;14.20;;
5878;SDS011;2965;42.640;23.370;2022-09-09T01:27:50;17.10;;;12.70;;
5878;SDS011;2965;42.640;23.370;2022-09-09T01:30:18;22.23;;;13.27;;
5878;SDS011;2965;42.640;23.370;2022-09-09T01:32:46;19.53;;;13.50;;
5878;SDS011;2965;42.640;23.370;2022-09-09T01:37:56;27.43;;;12.80;;
5878;SDS011;2965;42.640;23.370;2022-09-09T01:40:22;15.90;;;12.93;;
5878;SDS011;2965;42.640;23.370;2022-09-09T01:42:47;17.90;;;12.90;;
5878;SDS011;2965;42.640;23.370;2022-09-09T01:45:13;25.53;;;15.53;;
5878;SDS011;2965;42.640;23.370;2022-09-09T01:47:39;23.03;;;13.17;;
5878;SDS011;2965;42.640;23.370;2022-09-09T01:50:06;16.70;;;13.97;;
5878;SDS011;2965;42.640;23.370;2022-09-09T01:52:36;19.20;;;14.83;;
5878;SDS011;2965;42.640;23.370;2022-09-09T01:55:02;28.70;;;13.87;;
5878;SDS011;2965;42.640;23.370;2022-09-09T01:57:31;20.40;;;13.87;;
5878;SDS011;2965;42.640;23.370;2022-09-09T02:00:03;16.80;;;13.87;;
5878;SDS011;2965;42.640;23.370;2022-09-09T02:05:36;19.13;;;14.17;;
5878;SDS011;2965;42.640;23.370;2022-09-09T02:08:08;23.90;;;15.07;;
5878;SDS011;2965;42.640;23.370;2022-09-09T02:10:47;19.00;;;14.80;;
5878;SDS011;2965;42.640;23.370;2022-09-09T02:13:20;23.73;;;14.43;;
5878;SDS011;2965;42.640;23.370;2022-09-09T02:19:01;17.83;;;13.43;;
5878;SDS011;2965;42.640;23.370;2022-09-09T02:21:33;28.17;;;15.80;;
5878;SDS011;2965;42.640;23.370;2022-09-09T02:24:03;19.83;;;15.43;;
5878;SDS011;2965;42.640;23.370;2022-09-09T02:26:33;22.60;;;15.40;;
5878;SDS011;2965;42.640;23.370;2022-09-09T02:29:01;19.37;;;15.27;;
5878;SDS011;2965;42.640;23.370;2022-09-09T02:31:28;19.57;;;15.10;;
5878;SDS011;2965;42.640;23.370;2022-09-09T02:33:56;18.90;;;13.03;;
5878;SDS011;2965;42.640;23.370;2022-09-09T02:36:26;17.10;;;14.47;;
5878;SDS011;2965;42.640;23.370;2022-09-09T02:38:56;17.63;;;14.57;;
5878;SDS011;2965;42.640;23.370;2022-09-09T02:41:32;16.53;;;13.70;;
5878;SDS011;2965;42.640;23.370;2022-09-09T02:43:59;26.40;;;13.70;;
5878;SDS011;2965;42.640;23.370;2022-09-09T02:46:32;16.17;;;13.53;;
5878;SDS011;2965;42.640;23.370;2022-09-09T02:49:02;18.93;;;13.90;;
5878;SDS011;2965;42.640;23.370;2022-09-09T02:56:52;21.40;;;15.27;;
5878;SDS011;2965;42.640;23.370;2022-09-09T02:59:21;19.80;;;14.30;;
5878;SDS011;2965;42.640;23.370;2022-09-09T03:01:47;25.53;;;16.40;;
5878;SDS011;2965;42.640;23.370;2022-09-09T03:04:13;22.87;;;17.53;;
5878;SDS011;2965;42.640;23.370;2022-09-09T03:06:39;22.57;;;15.80;;
5878;SDS011;2965;42.640;23.370;2022-09-09T03:09:04;17.07;;;15.10;;
5878;SDS011;2965;42.640;23.370;2022-09-09T03:11:30;19.47;;;15.47;;
5878;SDS011;2965;42.640;23.370;2022-09-09T03:13:55;25.27;;;15.83;;
5878;SDS011;2965;42.640;23.370;2022-09-09T03:16:21;28.87;;;15.07;;
5878;SDS011;2965;42.640;23.370;2022-09-09T03:18:47;18.47;;;14.67;;
5878;SDS011;2965;42.640;23.370;2022-09-09T03:21:13;15.70;;;13.40;;
5878;SDS011;2965;42.640;23.370;2022-09-09T03:23:39;17.30;;;13.83;;
5878;SDS011;2965;42.640;23.370;2022-09-09T03:26:05;22.70;;;14.70;;
5878;SDS011;2965;42.640;23.370;2022-09-09T03:28:30;23.33;;;14.60;;
5878;SDS011;2965;42.640;23.370;2022-09-09T03:31:02;16.30;;;14.10;;
5878;SDS011;2965;42.640;23.370;2022-09-09T03:33:30;23.50;;;17.30;;
5878;SDS011;2965;42.640;23.370;2022-09-09T03:35:56;25.73;;;18.63;;
5878;SDS011;2965;42.640;23.370;2022-09-09T03:38:25;20.40;;;16.40;;
5878;SDS011;2965;42.640;23.370;2022-09-09T03:40:51;26.37;;;18.40;;
5878;SDS011;2965;42.640;23.370;2022-09-09T03:43:21;22.47;;;17.30;;
5878;SDS011;2965;42.640;23.370;2022-09-09T03:45:46;19.13;;;16.17;;
5878;SDS011;2965;42.640;23.370;2022-09-09T03:48:14;24.20;;;18.03;;
5878;SDS011;2965;42.640;23.370;2022-09-09T03:50:47;19.57;;;16.27;;
5878;SDS011;2965;42.640;23.370;2022-09-09T03:53:19;24.37;;;19.03;;
5878;SDS011;2965;42.640;23.370;2022-09-09T03:55:47;32.43;;;18.43;;
5878;SDS011;2965;42.640;23.370;2022-09-09T03:58:20;26.60;;;18.67;;
5878;SDS011;2965;42.640;23.370;2022-09-09T04:03:20;21.70;;;17.07;;
5878;SDS011;2965;42.640;23.370;2022-09-09T04:05:48;26.60;;;16.50;;
5878;SDS011;2965;42.640;23.370;2022-09-09T04:08:14;21.33;;;14.30;;
5878;SDS011;2965;42.640;23.370;2022-09-09T04:10:39;26.70;;;15.70;;
5878;SDS011;2965;42.640;23.370;2022-09-09T04:13:04;17.00;;;14.00;;
5878;SDS011;2965;42.640;23.370;2022-09-09T04:15:30;19.03;;;15.73;;
5878;SDS011;2965;42.640;23.370;2022-09-09T04:17:56;20.20;;;15.70;;
5878;SDS011;2965;42.640;23.370;2022-09-09T04:20:22;19.17;;;15.17;;
5878;SDS011;2965;42.640;23.370;2022-09-09T04:22:47;20.93;;;16.50;;
5878;SDS011;2965;42.640;23.370;2022-09-09T04:25:13;20.00;;;16.50;;
5878;SDS011;2965;42.640;23.370;2022-09-09T04:27:39;17.07;;;14.80;;
5878;SDS011;2965;42.640;23.370;2022-09-09T04:30:05;22.80;;;16.07;;
5878;SDS011;2965;42.640;23.370;2022-09-09T04:32:34;26.10;;;16.60;;
5878;SDS011;2965;42.640;23.370;2022-09-09T04:35:01;21.53;;;16.00;;
5878;SDS011;2965;42.640;23.370;2022-09-09T04:37:28;21.17;;;16.03;;
5878;SDS011;2965;42.640;23.370;2022-09-09T04:39:53;25.87;;;14.63;;
5878;SDS011;2965;42.640;23.370;2022-09-09T04:42:19;24.70;;;14.67;;
5878;SDS011;2965;42.640;23.370;2022-09-09T04:44:44;14.50;;;13.00;;
5878;SDS011;2965;42.640;23.370;2022-09-09T04:47:10;18.87;;;15.73;;
5878;SDS011;2965;42.640;23.370;2022-09-09T04:49:35;26.80;;;16.87;;
5878;SDS011;2965;42.640;23.370;2022-09-09T04:52:02;26.70;;;19.03;;
5878;SDS011;2965;42.640;23.370;2022-09-09T04:54:28;27.00;;;19.97;;
5878;SDS011;2965;42.640;23.370;2022-09-09T04:56:54;28.73;;;18.23;;
5878;SDS011;2965;42.640;23.370;2022-09-09T04:59:20;20.43;;;17.03;;
5878;SDS011;2965;42.640;23.370;2022-09-09T05:01:46;28.07;;;17.67;;
5878;SDS011;2965;42.640;23.370;2022-09-09T05:04:12;23.43;;;16.27;;
5878;SDS011;2965;42.640;23.370;2022-09-09T05:06:38;24.30;;;16.37;;
5878;SDS011;2965;42.640;23.370;2022-09-09T05:09:03;26.30;;;16.97;;
5878;SDS011;2965;42.640;23.370;2022-09-09T05:11:29;22.33;;;17.03;;
5878;SDS011;2965;42.640;23.370;2022-09-09T05:13:57;23.77;;;14.20;;
5878;SDS011;2965;42.640;23.370;2022-09-09T05:16:22;23.73;;;15.10;;
5878;SDS011;2965;42.640;23.370;2022-09-09T05:18:48;20.40;;;14.53;;
5878;SDS011;2965;42.640;23.370;2022-09-09T05:21:16;17.83;;;15.30;;
5878;SDS011;2965;42.640;23.370;2022-09-09T05:23:42;23.07;;;15.27;;
5878;SDS011;2965;42.640;23.370;2022-09-09T05:26:11;20.00;;;16.40;;
5878;SDS011;2965;42.640;23.370;2022-09-09T05:28:41;21.57;;;15.70;;
5878;SDS011;2965;42.640;23.370;2022-09-09T05:31:07;22.53;;;15.60;;
5878;SDS011;2965;42.640;23.370;2022-09-09T05:33:34;33.20;;;22.83;;
5878;SDS011;2965;42.640;23.370;2022-09-09T05:36:02;26.23;;;19.97;;
5878;SDS011;2965;42.640;23.370;2022-09-09T05:38:33;15.67;;;14.00;;
5878;SDS011;2965;42.640;23.370;2022-09-09T05:40:59;19.07;;;14.23;;
5878;SDS011;2965;42.640;23.370;2022-09-09T05:43:26;15.70;;;13.00;;
5878;SDS011;2965;42.640;23.370;2022-09-09T05:46:02;19.20;;;13.33;;
5878;SDS011;2965;42.640;23.370;2022-09-09T05:48:36;21.80;;;13.13;;
5878;SDS011;2965;42.640;23.370;2022-09-09T05:51:06;18.30;;;12.30;;
5878;SDS011;2965;42.640;23.370;2022-09-09T05:53:34;17.30;;;11.90;;
5878;SDS011;2965;42.640;23.370;2022-09-09T05:58:30;15.87;;;13.33;;
5878;SDS011;2965;42.640;23.370;2022-09-09T06:01:00;14.97;;;13.23;;
5878;SDS011;2965;42.640;23.370;2022-09-09T06:03:26;20.70;;;12.53;;
5878;SDS011;2965;42.640;23.370;2022-09-09T06:05:58;15.27;;;12.43;;
5878;SDS011;2965;42.640;23.370;2022-09-09T06:08:25;14.27;;;11.47;;
5878;SDS011;2965;42.640;23.370;2022-09-09T06:10:51;13.10;;;11.90;;
5878;SDS011;2965;42.640;23.370;2022-09-09T06:13:17;12.97;;;11.63;;
5878;SDS011;2965;42.640;23.370;2022-09-09T06:15:52;13.50;;;11.93;;
5878;SDS011;2965;42.640;23.370;2022-09-09T06:18:18;17.00;;;12.30;;
5878;SDS011;2965;42.640;23.370;2022-09-09T06:20:56;17.03;;;12.53;;
5878;SDS011;2965;42.640;23.370;2022-09-09T06:23:23;15.80;;;11.40;;
5878;SDS011;2965;42.640;23.370;2022-09-09T06:25:50;14.10;;;12.30;;
5878;SDS011;2965;42.640;23.370;2022-09-09T06:28:17;17.40;;;12.20;;
5878;SDS011;2965;42.640;23.370;2022-09-09T06:30:43;16.97;;;12.20;;
5878;SDS011;2965;42.640;23.370;2022-09-09T06:33:09;14.77;;;12.03;;
5878;SDS011;2965;42.640;23.370;2022-09-09T06:35:35;13.50;;;12.10;;
5878;SDS011;2965;42.640;23.370;2022-09-09T06:38:00;18.37;;;13.10;;
5878;SDS011;2965;42.640;23.370;2022-09-09T06:40:26;13.63;;;12.13;;
5878;SDS011;2965;42.640;23.370;2022-09-09T06:42:51;26.07;;;13.10;;
5878;SDS011;2965;42.640;23.370;2022-09-09T06:45:17;15.10;;;13.17;;
5878;SDS011;2965;42.640;23.370;2022-09-09T06:47:43;21.03;;;13.93;;
5878;SDS011;2965;42.640;23.370;2022-09-09T06:50:09;12.70;;;11.50;;
5878;SDS011;2965;42.640;23.370;2022-09-09T06:52:35;25.93;;;13.10;;
5878;SDS011;2965;42.640;23.370;2022-09-09T06:55:00;23.57;;;12.90;;
5878;SDS011;2965;42.640;23.370;2022-09-09T06:57:26;13.43;;;12.33;;
5878;SDS011;2965;42.640;23.370;2022-09-09T06:59:51;26.57;;;12.67;;
5878;SDS011;2965;42.640;23.370;2022-09-09T07:02:17;15.67;;;12.03;;
5878;SDS011;2965;42.640;23.370;2022-09-09T07:04:43;16.73;;;11.87;;
5878;SDS011;2965;42.640;23.370;2022-09-09T07:07:09;18.40;;;12.07;;
5878;SDS011;2965;42.640;23.370;2022-09-09T07:09:37;18.40;;;14.33;;
5878;SDS011;2965;42.640;23.370;2022-09-09T07:12:02;17.07;;;12.77;;
5878;SDS011;2965;42.640;23.370;2022-09-09T07:14:30;14.03;;;12.63;;
5878;SDS011;2965;42.640;23.370;2022-09-09T07:16:56;21.03;;;12.73;;
5878;SDS011;2965;42.640;23.370;2022-09-09T07:19:22;15.83;;;12.00;;
5878;SDS011;2965;42.640;23.370;2022-09-09T07:21:47;24.30;;;13.07;;
5878;SDS011;2965;42.640;23.370;2022-09-09T07:24:13;12.80;;;11.60;;
5878;SDS011;2965;42.640;23.370;2022-09-09T07:26:39;12.40;;;11.20;;
5878;SDS011;2965;42.640;23.370;2022-09-09T07:29:05;20.03;;;11.37;;
5878;SDS011;2965;42.640;23.370;2022-09-09T07:31:35;18.23;;;11.13;;
5878;SDS011;2965;42.640;23.370;2022-09-09T07:34:03;14.13;;;11.57;;
5878;SDS011;2965;42.640;23.370;2022-09-09T07:36:31;12.00;;;10.23;;
5878;SDS011;2965;42.640;23.370;2022-09-09T07:39:08;12.47;;;11.20;;
5878;SDS011;2965;42.640;23.370;2022-09-09T07:41:40;12.97;;;11.00;;
5878;SDS011;2965;42.640;23.370;2022-09-09T07:44:11;15.30;;;10.97;;
5878;SDS011;2965;42.640;23.370;2022-09-09T07:46:42;15.83;;;10.67;;
5878;SDS011;2965;42.640;23.370;2022-09-09T07:49:08;13.07;;;10.80;;
5878;SDS011;2965;42.640;23.370;2022-09-09T07:51:35;16.33;;;11.57;;
5878;SDS011;2965;42.640;23.370;2022-09-09T07:54:04;16.93;;;11.40;;
5878;SDS011;2965;42.640;23.370;2022-09-09T07:56:32;15.37;;;11.30;;
5878;SDS011;2965;42.640;23.370;2022-09-09T07:59:01;11.33;;;10.50;;
5878;SDS011;2965;42.640;23.370;2022-09-09T08:01:28;11.27;;;10.07;;
5878;SDS011;2965;42.640;23.370;2022-09-09T08:03:56;14.60;;;10.97;;
5878;SDS011;2965;42.640;23.370;2022-09-09T08:06:26;12.20;;;10.30;;
5878;SDS011;2965;42.640;23.370;2022-09-09T08:08:53;13.23;;;10.60;;
5878;SDS011;2965;42.640;23.370;2022-09-09T08:11:19;15.20;;;10.90;;
5878;SDS011;2965;42.640;23.370;2022-09-09T08:13:45;18.77;;;10.40;;
5878;SDS011;2965;42.640;23.370;2022-09-09T08:18:41;13.87;;;9.67;;
5878;SDS011;2965;42.640;23.370;2022-09-09T08:21:14;11.40;;;10.20;;
5878;SDS011;2965;42.640;23.370;2022-09-09T08:23:43;11.43;;;10.30;;
5878;SDS011;2965;42.640;23.370;2022-09-09T08:26:15;17.13;;;9.73;;
5878;SDS011;2965;42.640;23.370;2022-09-09T08:28:43;10.77;;;9.30;;
5878;SDS011;2965;42.640;23.370;2022-09-09T08:33:42;10.40;;;9.30;;
5878;SDS011;2965;42.640;23.370;2022-09-09T08:36:11;11.07;;;9.97;;
5878;SDS011;2965;42.640;23.370;2022-09-09T08:38:40;10.53;;;8.87;;
5878;SDS011;2965;42.640;23.370;2022-09-09T08:44:15;20.83;;;9.60;;
5878;SDS011;2965;42.640;23.370;2022-09-09T08:50:07;11.47;;;9.07;;
5878;SDS011;2965;42.640;23.370;2022-09-09T08:57:51;12.23;;;8.77;;
5878;SDS011;2965;42.640;23.370;2022-09-09T09:00:18;13.30;;;9.50;;
5878;SDS011;2965;42.640;23.370;2022-09-09T09:05:46;9.63;;;8.63;;
5878;SDS011;2965;42.640;23.370;2022-09-09T09:08:29;15.27;;;10.47;;
5878;SDS011;2965;42.640;23.370;2022-09-09T09:11:03;9.27;;;8.37;;
5878;SDS011;2965;42.640;23.370;2022-09-09T09:16:23;16.53;;;9.77;;
5878;SDS011;2965;42.640;23.370;2022-09-09T09:19:00;11.90;;;8.67;;
5878;SDS011;2965;42.640;23.370;2022-09-09T09:21:36;9.97;;;9.07;;
5878;SDS011;2965;42.640;23.370;2022-09-09T09:24:09;11.53;;;10.33;;
5878;SDS011;2965;42.640;23.370;2022-09-09T09:26:44;11.70;;;7.70;;
5878;SDS011;2965;42.640;23.370;2022-09-09T09:29:11;9.03;;;8.13;;
5878;SDS011;2965;42.640;23.370;2022-09-09T09:31:38;12.33;;;9.70;;
5878;SDS011;2965;42.640;23.370;2022-09-09T09:34:03;10.53;;;9.70;;
5878;SDS011;2965;42.640;23.370;2022-09-09T09:36:38;12.03;;;8.67;;
5878;SDS011;2965;42.640;23.370;2022-09-09T09:39:04;10.00;;;8.93;;
5878;SDS011;2965;42.640;23.370;2022-09-09T09:41:35;9.87;;;8.90;;
5878;SDS011;2965;42.640;23.370;2022-09-09T09:44:04;9.27;;;8.17;;
5878;SDS011;2965;42.640;23.370;2022-09-09T09:46:31;9.93;;;9.03;;
5878;SDS011;2965;42.640;23.370;2022-09-09T09:49:01;13.10;;;8.83;;
5878;SDS011;2965;42.640;23.370;2022-09-09T09:51:30;13.50;;;8.77;;
5878;SDS011;2965;42.640;23.370;2022-09-09T09:56:38;11.67;;;9.13;;
5878;SDS011;2965;42.640;23.370;2022-09-09T09:59:05;9.40;;;8.50;;
5878;SDS011;2965;42.640;23.370;2022-09-09T10:01:31;8.80;;;8.20;;
5878;SDS011;2965;42.640;23.370;2022-09-09T10:04:00;10.47;;;8.80;;
5878;SDS011;2965;42.640;23.370;2022-09-09T10:06:37;12.70;;;8.50;;
5878;SDS011;2965;42.640;23.370;2022-09-09T10:09:18;15.60;;;9.90;;
5878;SDS011;2965;42.640;23.370;2022-09-09T10:22:34;10.37;;;8.73;;
5878;SDS011;2965;42.640;23.370;2022-09-09T10:33:50;11.07;;;9.83;;
5878;SDS011;2965;42.640;23.370;2022-09-09T10:36:24;18.33;;;10.03;;
5878;SDS011;2965;42.640;23.370;2022-09-09T10:38:57;11.00;;;9.83;;
5878;SDS011;2965;42.640;23.370;2022-09-09T10:46:55;12.70;;;9.73;;
5878;SDS011;2965;42.640;23.370;2022-09-09T10:50:13;11.13;;;9.97;;
5878;SDS011;2965;42.640;23.370;2022-09-09T10:55:52;10.00;;;9.17;;
5878;SDS011;2965;42.640;23.370;2022-09-09T10:58:29;16.20;;;9.80;;
5878;SDS011;2965;42.640;23.370;2022-09-09T11:01:03;14.13;;;9.87;;
5878;SDS011;2965;42.640;23.370;2022-09-09T11:03:39;12.93;;;10.60;;
5878;SDS011;2965;42.640;23.370;2022-09-09T11:06:12;20.97;;;10.27;;
5878;SDS011;2965;42.640;23.370;2022-09-09T11:08:44;10.93;;;9.67;;
5878;SDS011;2965;42.640;23.370;2022-09-09T11:17:18;10.53;;;9.53;;
5878;SDS011;2965;42.640;23.370;2022-09-09T11:19:56;12.30;;;11.10;;
5878;SDS011;2965;42.640;23.370;2022-09-09T11:25:08;11.33;;;10.40;;
5878;SDS011;2965;42.640;23.370;2022-09-09T11:41:22;11.00;;;10.03;;
5878;SDS011;2965;42.640;23.370;2022-09-09T11:43:49;15.80;;;10.50;;
5878;SDS011;2965;42.640;23.370;2022-09-09T11:46:20;14.83;;;9.47;;
5878;SDS011;2965;42.640;23.370;2022-09-09T11:51:53;11.67;;;10.63;;
5878;SDS011;2965;42.640;23.370;2022-09-09T11:54:30;10.83;;;9.90;;
5878;SDS011;2965;42.640;23.370;2022-09-09T11:56:57;11.97;;;10.77;;
5878;SDS011;2965;42.640;23.370;2022-09-09T11:59:32;13.97;;;10.60;;
5878;SDS011;2965;42.640;23.370;2022-09-09T12:01:59;12.63;;;11.47;;
5878;SDS011;2965;42.640;23.370;2022-09-09T12:06:55;15.23;;;10.67;;
5878;SDS011;2965;42.640;23.370;2022-09-09T12:12:24;11.73;;;10.23;;
5878;SDS011;2965;42.640;23.370;2022-09-09T12:17:41;10.23;;;9.40;;
5878;SDS011;2965;42.640;23.370;2022-09-09T12:20:38;12.53;;;11.30;;
5878;SDS011;2965;42.640;23.370;2022-09-09T12:23:30;15.73;;;11.10;;
5878;SDS011;2965;42.640;23.370;2022-09-09T12:26:31;22.00;;;10.37;;
5878;SDS011;2965;42.640;23.370;2022-09-09T12:29:18;11.40;;;10.40;;
5878;SDS011;2965;42.640;23.370;2022-09-09T12:32:19;15.23;;;12.00;;
5878;SDS011;2965;42.640;23.370;2022-09-09T12:37:52;12.60;;;11.50;;
5878;SDS011;2965;42.640;23.370;2022-09-09T12:40:24;12.87;;;11.57;;
5878;SDS011;2965;42.640;23.370;2022-09-09T12:42:57;12.83;;;11.50;;
5878;SDS011;2965;42.640;23.370;2022-09-09T12:45:31;23.33;;;12.43;;
5878;SDS011;2965;42.640;23.370;2022-09-09T12:48:06;12.60;;;11.50;;
5878;SDS011;2965;42.640;23.370;2022-09-09T12:50:37;14.73;;;12.80;;
5878;SDS011;2965;42.640;23.370;2022-09-09T12:53:29;15.37;;;11.90;;
5878;SDS011;2965;42.640;23.370;2022-09-09T12:56:01;15.60;;;10.33;;
5878;SDS011;2965;42.640;23.370;2022-09-09T12:58:27;13.83;;;12.47;;
5878;SDS011;2965;42.640;23.370;2022-09-09T13:00:58;18.77;;;11.77;;
5878;SDS011;2965;42.640;23.370;2022-09-09T13:03:46;11.53;;;10.53;;
5878;SDS011;2965;42.640;23.370;2022-09-09T13:06:36;11.90;;;10.70;;
5878;SDS011;2965;42.640;23.370;2022-09-09T13:09:02;13.10;;;11.00;;
5878;SDS011;2965;42.640;23.370;2022-09-09T13:11:29;11.43;;;10.33;;
5878;SDS011;2965;42.640;23.370;2022-09-09T13:14:15;19.33;;;10.20;;
5878;SDS011;2965;42.640;23.370;2022-09-09T13:17:05;11.23;;;10.07;;
5878;SDS011;2965;42.640;23.370;2022-09-09T13:19:34;11.70;;;10.23;;
5878;SDS011;2965;42.640;23.370;2022-09-09T13:22:20;11.73;;;10.00;;
5878;SDS011;2965;42.640;23.370;2022-09-09T13:25:04;15.20;;;11.50;;
5878;SDS011;2965;42.640;23.370;2022-09-09T13:27:39;11.97;;;10.80;;
5878;SDS011;2965;42.640;23.370;2022-09-09T13:30:22;18.03;;;10.80;;
5878;SDS011;2965;42.640;23.370;2022-09-09T13:33:06;12.30;;;10.00;;
5878;SDS011;2965;42.640;23.370;2022-09-09T13:36:27;12.77;;;10.00;;
5878;SDS011;2965;42.640;23.370;2022-09-09T13:38:59;15.90;;;9.83;;
5878;SDS011;2965;42.640;23.370;2022-09-09T13:41:32;13.13;;;9.63;;
5878;SDS011;2965;42.640;23.370;2022-09-09T13:44:14;12.20;;;9.83;;
5878;SDS011;2965;42.640;23.370;2022-09-09T13:47:18;19.23;;;10.33;;
5878;SDS011;2965;42.640;23.370;2022-09-09T13:49:47;16.17;;;11.00;;
5878;SDS011;2965;42.640;23.370;2022-09-09T13:52:14;12.00;;;11.07;;
5878;SDS011;2965;42.640;23.370;2022-09-09T13:54:42;19.13;;;10.83;;
5878;SDS011;2965;42.640;23.370;2022-09-09T13:57:14;12.20;;;10.90;;
5878;SDS011;2965;42.640;23.370;2022-09-09T13:59:43;13.97;;;11.80;;
5878;SDS011;2965;42.640;23.370;2022-09-09T14:05:29;13.13;;;11.80;;
5878;SDS011;2965;42.640;23.370;2022-09-09T14:07:58;29.10;;;12.17;;
5878;SDS011;2965;42.640;23.370;2022-09-09T14:10:27;11.63;;;10.63;;
5878;SDS011;2965;42.640;23.370;2022-09-09T14:12:53;19.70;;;11.17;;
5878;SDS011;2965;42.640;23.370;2022-09-09T14:15:19;12.63;;;10.53;;
5878;SDS011;2965;42.640;23.370;2022-09-09T14:17:46;13.33;;;10.63;;
5878;SDS011;2965;42.640;23.370;2022-09-09T14:20:13;15.50;;;10.33;;
5878;SDS011;2965;42.640;23.370;2022-09-09T14:22:40;12.47;;;10.80;;
5878;SDS011;2965;42.640;23.370;2022-09-09T14:25:06;12.20;;;11.00;;
5878;SDS011;2965;42.640;23.370;2022-09-09T14:27:32;12.03;;;10.97;;
5878;SDS011;2965;42.640;23.370;2022-09-09T14:29:58;14.10;;;10.63;;
5878;SDS011;2965;42.640;23.370;2022-09-09T14:32:25;11.77;;;10.00;;
5878;SDS011;2965;42.640;23.370;2022-09-09T14:34:51;16.93;;;10.90;;
5878;SDS011;2965;42.640;23.370;2022-09-09T14:37:17;13.30;;;12.03;;
5878;SDS011;2965;42.640;23.370;2022-09-09T14:39:43;11.07;;;9.97;;
5878;SDS011;2965;42.640;23.370;2022-09-09T14:42:12;11.53;;;10.67;;
5878;SDS011;2965;42.640;23.370;2022-09-09T14:44:39;11.90;;;10.80;;
5878;SDS011;2965;42.640;23.370;2022-09-09T14:47:05;15.73;;;10.50;;
5878;SDS011;2965;42.640;23.370;2022-09-09T14:49:33;16.00;;;11.77;;
5878;SDS011;2965;42.640;23.370;2022-09-09T14:52:02;10.70;;;9.73;;
5878;SDS011;2965;42.640;23.370;2022-09-09T14:54:28;16.43;;;10.83;;
5878;SDS011;2965;42.640;23.370;2022-09-09T14:56:54;11.80;;;10.70;;
5878;SDS011;2965;42.640;23.370;2022-09-09T14:59:19;11.73;;;10.53;;
5878;SDS011;2965;42.640;23.370;2022-09-09T15:01:45;23.33;;;11.57;;
5878;SDS011;2965;42.640;23.370;2022-09-09T15:04:11;12.17;;;10.90;;
5878;SDS011;2965;42.640;23.370;2022-09-09T15:06:39;13.30;;;11.00;;
5878;SDS011;2965;42.640;23.370;2022-09-09T15:09:07;19.13;;;11.47;;
5878;SDS011;2965;42.640;23.370;2022-09-09T15:11:34;24.10;;;11.37;;
5878;SDS011;2965;42.640;23.370;2022-09-09T15:14:03;12.73;;;11.73;;
5878;SDS011;2965;42.640;23.370;2022-09-09T15:16:29;21.57;;;10.90;;
5878;SDS011;2965;42.640;23.370;2022-09-09T15:18:57;12.00;;;10.80;;
5878;SDS011;2965;42.640;23.370;2022-09-09T15:21:25;12.70;;;11.50;;
5878;SDS011;2965;42.640;23.370;2022-09-09T15:23:52;11.83;;;10.93;;
5878;SDS011;2965;42.640;23.370;2022-09-09T15:26:18;12.47;;;11.33;;
5878;SDS011;2965;42.640;23.370;2022-09-09T15:28:46;14.10;;;11.50;;
5878;SDS011;2965;42.640;23.370;2022-09-09T15:31:13;16.47;;;11.70;;
5878;SDS011;2965;42.640;23.370;2022-09-09T15:33:46;13.30;;;11.07;;
5878;SDS011;2965;42.640;23.370;2022-09-09T15:38:38;11.30;;;10.30;;
5878;SDS011;2965;42.640;23.370;2022-09-09T15:41:04;11.60;;;10.23;;
5878;SDS011;2965;42.640;23.370;2022-09-09T15:43:29;12.20;;;11.00;;
5878;SDS011;2965;42.640;23.370;2022-09-09T15:45:57;11.37;;;10.27;;
5878;SDS011;2965;42.640;23.370;2022-09-09T15:48:30;12.17;;;11.07;;
5878;SDS011;2965;42.640;23.370;2022-09-09T15:51:04;11.77;;;10.80;;
5878;SDS011;2965;42.640;23.370;2022-09-09T15:53:30;21.07;;;10.93;;
5878;SDS011;2965;42.640;23.370;2022-09-09T15:55:57;15.33;;;10.87;;
5878;SDS011;2965;42.640;23.370;2022-09-09T15:58:23;12.77;;;11.67;;
5878;SDS011;2965;42.640;23.370;2022-09-09T16:00:49;16.20;;;10.90;;
5878;SDS011;2965;42.640;23.370;2022-09-09T16:03:14;13.13;;;11.90;;
5878;SDS011;2965;42.640;23.370;2022-09-09T16:05:40;16.30;;;11.47;;
5878;SDS011;2965;42.640;23.370;2022-09-09T16:08:05;15.23;;;11.40;;
5878;SDS011;2965;42.640;23.370;2022-09-09T16:10:31;13.40;;;12.10;;
5878;SDS011;2965;42.640;23.370;2022-09-09T16:12:56;15.53;;;11.83;;
5878;SDS011;2965;42.640;23.370;2022-09-09T16:15:22;13.23;;;12.03;;
5878;SDS011;2965;42.640;23.370;2022-09-09T16:17:48;18.50;;;11.20;;
5878;SDS011;2965;42.640;23.370;2022-09-09T16:20:14;12.83;;;11.27;;
5878;SDS011;2965;42.640;23.370;2022-09-09T16:22:39;17.57;;;12.00;;
5878;SDS011;2965;42.640;23.370;2022-09-09T16:25:05;17.33;;;15.23;;
5878;SDS011;2965;42.640;23.370;2022-09-09T16:27:31;14.50;;;12.43;;
5878;SDS011;2965;42.640;23.370;2022-09-09T16:29:57;13.40;;;12.20;;
5878;SDS011;2965;42.640;23.370;2022-09-09T16:32:22;17.70;;;13.10;;
5878;SDS011;2965;42.640;23.370;2022-09-09T16:34:48;19.43;;;13.90;;
5878;SDS011;2965;42.640;23.370;2022-09-09T16:37:13;16.83;;;13.60;;
5878;SDS011;2965;42.640;23.370;2022-09-09T16:39:38;16.33;;;14.60;;
5878;SDS011;2965;42.640;23.370;2022-09-09T16:42:04;21.70;;;14.90;;
5878;SDS011;2965;42.640;23.370;2022-09-09T16:44:30;18.37;;;14.77;;
5878;SDS011;2965;42.640;23.370;2022-09-09T16:46:55;22.63;;;16.50;;
5878;SDS011;2965;42.640;23.370;2022-09-09T16:49:21;18.00;;;14.97;;
5878;SDS011;2965;42.640;23.370;2022-09-09T16:51:47;13.67;;;12.23;;
5878;SDS011;2965;42.640;23.370;2022-09-09T16:54:14;14.33;;;12.70;;
5878;SDS011;2965;42.640;23.370;2022-09-09T16:56:42;17.33;;;14.33;;
5878;SDS011;2965;42.640;23.370;2022-09-09T16:59:10;28.77;;;13.17;;
5878;SDS011;2965;42.640;23.370;2022-09-09T17:01:40;14.10;;;12.80;;
5878;SDS011;2965;42.640;23.370;2022-09-09T17:04:10;20.57;;;15.80;;
5878;SDS011;2965;42.640;23.370;2022-09-09T17:06:38;24.90;;;13.83;;
5878;SDS011;2965;42.640;23.370;2022-09-09T17:09:06;13.07;;;11.87;;
5878;SDS011;2965;42.640;23.370;2022-09-09T17:11:33;17.37;;;13.37;;
5878;SDS011;2965;42.640;23.370;2022-09-09T17:13:59;21.70;;;13.20;;
5878;SDS011;2965;42.640;23.370;2022-09-09T17:16:28;16.63;;;13.77;;
5878;SDS011;2965;42.640;23.370;2022-09-09T17:18:56;16.00;;;11.73;;
5878;SDS011;2965;42.640;23.370;2022-09-09T17:21:24;28.30;;;14.23;;
5878;SDS011;2965;42.640;23.370;2022-09-09T17:23:51;13.23;;;12.00;;
5878;SDS011;2965;42.640;23.370;2022-09-09T17:26:18;17.87;;;11.43;;
5878;SDS011;2965;42.640;23.370;2022-09-09T17:28:45;23.47;;;11.63;;
5878;SDS011;2965;42.640;23.370;2022-09-09T17:31:12;24.20;;;13.47;;